createdAt,value
2022-12-23T00:01:24.660Z,16.40
2022-12-23T00:03:53.127Z,14.65
2022-12-23T00:06:22.151Z,17.85
2022-12-23T00:08:58.902Z,16.67
2022-12-23T00:11:28.960Z,19.42
2022-12-23T00:14:20.521Z,16.83
2022-12-23T00:16:49.163Z,16.85
2022-12-23T00:19:17.597Z,19.60
2022-12-23T00:21:45.924Z,15.85
2022-12-23T00:24:15.505Z,21.70
2022-12-23T00:26:43.787Z,19.65
2022-12-23T00:29:12.594Z,25.05
2022-12-23T00:31:40.890Z,25.15
2022-12-23T00:34:10.093Z,24.02
2022-12-23T00:36:47.189Z,27.67
2022-12-23T00:39:34.425Z,27.98
2022-12-23T00:42:20.534Z,21.13
2022-12-23T00:44:48.787Z,22.58
2022-12-23T00:47:30.755Z,26.27
2022-12-23T00:49:59.073Z,23.88
2022-12-23T00:52:27.573Z,28.05
2022-12-23T00:54:57.156Z,28.75
2022-12-23T00:57:25.413Z,31.10
2022-12-23T00:59:54.303Z,26.92
2022-12-23T01:02:40.107Z,27.90
2022-12-23T01:05:27.894Z,26.42
2022-12-23T01:07:56.155Z,11.10
2022-12-23T01:10:25.799Z,38.95
2022-12-23T01:12:54.113Z,31.92
2022-12-23T01:15:22.441Z,29.15
2022-12-23T01:17:50.675Z,34.28
2022-12-23T01:20:19.237Z,29.90
2022-12-23T01:22:47.643Z,25.60
2022-12-23T01:25:15.823Z,40.58
2022-12-23T01:27:45.387Z,31.13
2022-12-23T01:30:14.551Z,27.90
2022-12-23T01:32:42.778Z,34.35
2022-12-23T01:35:11.070Z,36.00
2022-12-23T01:37:39.416Z,32.63
2022-12-23T01:40:09.863Z,38.88
2022-12-23T01:42:46.805Z,39.35
2022-12-23T01:45:19.897Z,41.17
2022-12-23T01:47:51.540Z,36.60
2022-12-23T01:50:22.500Z,34.65
2022-12-23T01:52:53.403Z,32.55
2022-12-23T01:55:24.405Z,31.08
2022-12-23T01:57:53.278Z,16.25
2022-12-23T02:00:40.602Z,26.88
2022-12-23T02:03:34.873Z,23.23
2022-12-23T02:06:17.650Z,30.70
2022-12-23T02:09:03.410Z,21.60
2022-12-23T02:11:49.188Z,24.45
2022-12-23T02:14:44.894Z,29.77
2022-12-23T02:17:22.152Z,32.55
2022-12-23T02:20:29.343Z,11.75
2022-12-23T02:23:16.783Z,36.38
2022-12-23T02:25:54.953Z,29.25
2022-12-23T02:28:41.878Z,34.97
2022-12-23T02:31:21.185Z,37.92
2022-12-23T02:33:55.862Z,43.45
2022-12-23T02:36:38.144Z,35.92
2022-12-23T02:39:09.932Z,36.38
2022-12-23T02:41:43.774Z,32.65
2022-12-23T02:44:20.683Z,35.33
2022-12-23T02:46:51.722Z,35.58
2022-12-23T02:49:23.272Z,33.33
2022-12-23T02:51:54.540Z,28.42
2022-12-23T02:54:26.372Z,32.83
2022-12-23T02:56:55.706Z,39.42
2022-12-23T02:59:27.145Z,26.17
2022-12-23T03:01:57.585Z,27.88
2022-12-23T03:04:25.844Z,23.02
2022-12-23T03:06:56.327Z,27.05
2022-12-23T03:09:30.526Z,31.40
2022-12-23T03:12:05.452Z,26.73
2022-12-23T03:14:52.256Z,10.43
2022-12-23T03:17:32.523Z,33.63
2022-12-23T03:20:07.152Z,30.20
2022-12-23T03:22:39.687Z,32.72
2022-12-23T03:25:12.619Z,32.45
2022-12-23T03:27:45.411Z,25.58
2022-12-23T03:30:15.767Z,26.20
2022-12-23T03:32:50.524Z,26.70
2022-12-23T03:35:21.277Z,25.90
2022-12-23T03:37:50.999Z,23.75
2022-12-23T03:40:21.700Z,26.00
2022-12-23T03:42:54.471Z,26.55
2022-12-23T03:45:41.400Z,25.10
2022-12-23T03:48:15.910Z,26.27
2022-12-23T03:50:45.084Z,24.77
2022-12-23T03:53:17.489Z,16.98
2022-12-23T03:55:49.835Z,30.60
2022-12-23T03:58:25.618Z,35.30
2022-12-23T04:00:59.891Z,33.08
2022-12-23T04:03:33.443Z,28.85
2022-12-23T04:06:04.363Z,28.60
2022-12-23T04:08:35.068Z,29.80
2022-12-23T04:11:04.485Z,34.22
2022-12-23T04:13:32.969Z,27.42
2022-12-23T04:16:02.348Z,25.45
2022-12-23T04:18:32.116Z,24.73
2022-12-23T04:21:01.080Z,32.00
2022-12-23T04:23:29.358Z,29.52
2022-12-23T04:25:57.676Z,15.63
2022-12-23T04:28:25.871Z,31.02
2022-12-23T04:30:54.085Z,20.50
2022-12-23T04:33:22.411Z,20.60
2022-12-23T04:35:52.532Z,32.08
2022-12-23T04:38:20.773Z,31.98
2022-12-23T04:40:49.134Z,37.10
2022-12-23T04:43:17.299Z,22.52
2022-12-23T04:45:45.451Z,34.05
2022-12-23T04:48:13.743Z,25.55
2022-12-23T04:50:41.956Z,39.97
2022-12-23T04:53:11.589Z,39.08
2022-12-23T04:55:39.924Z,21.00
2022-12-23T04:58:08.172Z,26.02
2022-12-23T05:00:39.754Z,19.35
2022-12-23T05:03:08.721Z,28.30
2022-12-23T05:05:37.093Z,27.38
2022-12-23T05:08:07.203Z,27.17
2022-12-23T05:10:36.946Z,40.75
2022-12-23T05:13:05.145Z,28.67
2022-12-23T05:15:34.185Z,37.08
2022-12-23T05:18:02.508Z,40.22
2022-12-23T05:20:30.753Z,48.83
2022-12-23T05:22:59.003Z,25.98
2022-12-23T05:25:27.518Z,42.53
2022-12-23T05:27:57.149Z,27.95
2022-12-23T05:30:25.390Z,32.95
2022-12-23T05:32:54.535Z,42.45
2022-12-23T05:35:22.997Z,23.25
2022-12-23T05:37:51.259Z,33.88
2022-12-23T05:40:23.568Z,32.25
2022-12-23T05:42:53.406Z,42.90
2022-12-23T05:45:23.192Z,39.47
2022-12-23T05:47:51.435Z,32.20
2022-12-23T05:50:21.895Z,40.05
2022-12-23T05:52:50.164Z,40.88
2022-12-23T05:55:18.520Z,36.03
2022-12-23T05:57:47.238Z,41.08
2022-12-23T06:00:17.211Z,40.15
2022-12-23T06:02:53.310Z,35.30
2022-12-23T06:05:22.397Z,52.55
2022-12-23T06:07:50.651Z,44.50
2022-12-23T06:10:18.932Z,42.10
2022-12-23T06:12:47.704Z,22.40
2022-12-23T06:15:15.975Z,34.05
2022-12-23T06:17:44.179Z,36.38
2022-12-23T06:20:20.188Z,40.72
2022-12-23T06:22:48.835Z,39.53
2022-12-23T06:25:17.139Z,37.67
2022-12-23T06:27:45.375Z,35.15
2022-12-23T06:30:14.471Z,39.28
2022-12-23T06:32:43.002Z,44.45
2022-12-23T06:35:11.668Z,37.95
2022-12-23T06:37:41.283Z,37.92
2022-12-23T06:40:10.923Z,38.15
2022-12-23T06:42:39.042Z,40.28
2022-12-23T06:45:09.036Z,35.45
2022-12-23T06:47:39.685Z,29.27
2022-12-23T06:50:09.207Z,52.85
2022-12-23T06:52:37.416Z,34.78
2022-12-23T06:55:07.946Z,36.83
2022-12-23T06:57:36.128Z,40.90
2022-12-23T07:00:05.131Z,34.58
2022-12-23T07:02:34.716Z,40.55
2022-12-23T07:05:02.945Z,36.13
2022-12-23T07:07:32.992Z,31.38
2022-12-23T07:10:01.330Z,45.38
2022-12-23T07:12:31.181Z,37.03
2022-12-23T07:14:59.468Z,43.90
2022-12-23T07:17:27.995Z,35.42
2022-12-23T07:19:56.419Z,38.90
2022-12-23T07:22:24.613Z,37.75
2022-12-23T07:24:52.918Z,34.72
2022-12-23T07:27:21.338Z,36.25
2022-12-23T07:29:50.886Z,38.83
2022-12-23T07:32:19.100Z,34.50
2022-12-23T07:34:47.860Z,38.75
2022-12-23T07:37:16.059Z,42.13
2022-12-23T07:39:44.354Z,31.83
2022-12-23T07:45:02.863Z,40.10
2022-12-23T07:47:33.463Z,44.63
2022-12-23T07:50:01.615Z,34.58
2022-12-23T07:52:31.890Z,45.78
2022-12-23T07:55:00.300Z,42.10
2022-12-23T07:57:29.437Z,42.28
2022-12-23T07:59:58.159Z,41.70
2022-12-23T08:02:27.845Z,40.00
2022-12-23T08:04:57.365Z,37.50
2022-12-23T08:07:25.595Z,43.97
2022-12-23T08:09:53.752Z,31.55
2022-12-23T08:12:22.098Z,39.20
2022-12-23T08:14:51.393Z,36.13
2022-12-23T08:17:21.398Z,36.75
2022-12-23T08:19:51.511Z,48.88
2022-12-23T08:22:19.819Z,41.83
2022-12-23T08:24:48.125Z,40.30
2022-12-23T08:27:16.443Z,46.13
2022-12-23T08:29:44.731Z,45.78
2022-12-23T08:32:13.040Z,40.45
2022-12-23T08:34:41.414Z,39.72
2022-12-23T08:37:11.174Z,41.33
2022-12-23T08:39:39.439Z,42.22
2022-12-23T08:42:07.719Z,40.53
2022-12-23T08:44:36.045Z,36.58
2022-12-23T08:47:04.816Z,47.45
2022-12-23T08:49:33.041Z,44.35
2022-12-23T08:52:01.691Z,35.35
2022-12-23T08:54:31.452Z,41.78
2022-12-23T08:56:59.627Z,45.63
2022-12-23T08:59:27.800Z,34.40
2022-12-23T09:01:57.016Z,36.20
2022-12-23T09:04:25.304Z,38.40
2022-12-23T09:06:53.619Z,41.05
2022-12-23T09:09:22.063Z,40.67
2022-12-23T09:11:51.617Z,34.88
2022-12-23T09:14:19.795Z,36.75
2022-12-23T09:16:48.191Z,25.58
2022-12-23T09:19:16.451Z,31.92
2022-12-23T09:21:44.637Z,32.28
2022-12-23T09:24:13.936Z,32.13
2022-12-23T09:26:42.110Z,39.38
2022-12-23T09:29:11.759Z,33.83
2022-12-23T09:31:40.222Z,37.75
2022-12-23T09:34:08.395Z,39.58
2022-12-23T09:36:36.620Z,34.88
2022-12-23T09:39:05.372Z,37.95
2022-12-23T09:41:48.937Z,37.20
2022-12-23T09:44:33.992Z,33.28
2022-12-23T09:47:04.984Z,31.77
2022-12-23T09:49:33.980Z,35.92
2022-12-23T09:52:05.057Z,33.10
2022-12-23T09:54:39.619Z,32.97
2022-12-23T09:57:12.912Z,41.80
2022-12-23T09:59:53.147Z,39.90
2022-12-23T10:02:26.685Z,40.47
2022-12-23T10:05:03.031Z,28.90
2022-12-23T10:07:35.652Z,19.10
2022-12-23T10:10:09.287Z,29.67
2022-12-23T10:12:40.690Z,37.97
2022-12-23T10:15:29.935Z,34.95
2022-12-23T10:18:02.127Z,34.08
2022-12-23T10:20:38.103Z,33.92
2022-12-23T10:23:10.461Z,29.52
2022-12-23T10:25:42.924Z,27.15
2022-12-23T10:28:11.585Z,26.83
2022-12-23T10:31:05.912Z,23.10
2022-12-23T10:33:38.569Z,26.88
2022-12-23T10:36:11.236Z,28.48
2022-12-23T10:39:00.042Z,23.23
2022-12-23T10:41:34.789Z,31.02
2022-12-23T10:44:28.045Z,27.90
2022-12-23T10:47:03.933Z,28.48
2022-12-23T10:49:39.753Z,22.88
2022-12-23T10:52:14.496Z,25.75
2022-12-23T10:54:44.476Z,19.88
2022-12-23T10:57:15.874Z,20.92
2022-12-23T10:59:45.601Z,20.17
2022-12-23T11:02:31.449Z,23.38
2022-12-23T11:05:00.979Z,18.92
2022-12-23T11:07:46.713Z,18.92
2022-12-23T11:10:18.942Z,21.90
2022-12-23T11:12:49.193Z,18.27
2022-12-23T11:15:30.158Z,21.63
2022-12-23T11:18:06.249Z,19.42
2022-12-23T11:20:36.431Z,22.95
2022-12-23T11:23:06.341Z,22.80
2022-12-23T11:25:37.218Z,21.30
2022-12-23T11:28:09.151Z,20.33
2022-12-23T11:30:39.775Z,21.33
2022-12-23T11:33:20.230Z,14.90
2022-12-23T11:35:48.511Z,19.45
2022-12-23T11:38:16.945Z,25.55
2022-12-23T11:40:48.147Z,20.25
2022-12-23T11:43:17.444Z,15.63
2022-12-23T11:45:45.838Z,20.05
2022-12-23T11:48:31.303Z,23.92
2022-12-23T11:51:00.707Z,21.08
2022-12-23T11:53:29.074Z,23.17
2022-12-23T11:56:01.888Z,26.08
2022-12-23T11:58:31.995Z,23.65
2022-12-23T12:01:07.597Z,21.50
2022-12-23T12:03:46.880Z,17.45
2022-12-23T12:06:17.283Z,31.58
2022-12-23T12:08:45.468Z,29.30
2022-12-23T12:11:15.472Z,20.08
2022-12-23T12:13:45.793Z,22.52
2022-12-23T12:16:29.759Z,20.58
2022-12-23T12:19:04.361Z,25.33
2022-12-23T12:21:36.260Z,28.60
2022-12-23T12:24:18.508Z,26.63
2022-12-23T12:26:51.346Z,21.80
2022-12-23T12:29:22.755Z,22.85
2022-12-23T12:31:52.906Z,24.13
2022-12-23T12:34:37.618Z,23.25
2022-12-23T12:37:11.967Z,25.15
2022-12-23T12:39:44.903Z,16.92
2022-12-23T12:42:17.304Z,22.02
2022-12-23T12:44:55.802Z,12.50
2022-12-23T12:47:52.762Z,17.13
2022-12-23T12:50:22.248Z,16.60
2022-12-23T12:52:51.705Z,20.23
2022-12-23T12:55:24.727Z,18.95
2022-12-23T12:57:53.149Z,20.88
2022-12-23T13:00:24.485Z,17.55
2022-12-23T13:03:10.966Z,23.63
2022-12-23T13:05:53.547Z,19.52
2022-12-23T13:08:32.486Z,18.42
2022-12-23T13:11:05.456Z,18.55
2022-12-23T13:13:41.436Z,12.60
2022-12-23T13:16:17.448Z,14.90
2022-12-23T13:18:49.967Z,15.38
2022-12-23T13:21:23.429Z,21.57
2022-12-23T13:24:01.926Z,18.17
2022-12-23T13:26:37.340Z,19.02
2022-12-23T13:29:34.033Z,8.75
2022-12-23T13:32:13.253Z,16.92
2022-12-23T13:34:48.598Z,14.60
2022-12-23T13:37:26.150Z,16.13
2022-12-23T13:39:58.899Z,12.93
2022-12-23T13:42:31.759Z,14.18
2022-12-23T13:45:00.916Z,13.48
2022-12-23T13:47:39.254Z,14.98
2022-12-23T13:50:12.297Z,17.10
2022-12-23T13:52:56.128Z,13.82
2022-12-23T13:55:41.976Z,12.68
2022-12-23T13:58:13.250Z,11.90
2022-12-23T14:00:41.580Z,11.95
2022-12-23T14:03:24.889Z,11.63
2022-12-23T14:05:54.205Z,6.20
2022-12-23T14:08:30.843Z,10.38
2022-12-23T14:11:01.089Z,12.00
2022-12-23T14:13:31.964Z,7.45
2022-12-23T14:16:17.550Z,10.57
2022-12-23T14:18:57.928Z,11.27
2022-12-23T14:21:35.188Z,11.90
2022-12-23T14:24:35.923Z,12.88
2022-12-23T14:27:30.258Z,12.00
2022-12-23T14:30:08.567Z,13.13
2022-12-23T14:32:45.683Z,10.13
2022-12-23T14:35:21.642Z,10.98
2022-12-23T14:38:24.441Z,9.30
2022-12-23T14:41:10.402Z,5.68
2022-12-23T14:44:06.257Z,11.98
2022-12-23T14:46:59.111Z,10.13
2022-12-23T14:49:43.011Z,9.40
2022-12-23T14:52:49.770Z,13.30
2022-12-23T14:55:57.282Z,7.93
2022-12-23T14:58:46.657Z,8.65
2022-12-23T15:01:17.797Z,9.77
2022-12-23T15:03:49.578Z,8.10
2022-12-23T15:06:24.719Z,11.25
2022-12-23T15:08:55.660Z,13.93
2022-12-23T15:11:28.464Z,13.45
2022-12-23T15:14:00.376Z,13.48
2022-12-23T15:16:33.913Z,14.48
2022-12-23T15:19:03.791Z,14.10
2022-12-23T15:21:34.142Z,14.85
2022-12-23T15:24:02.887Z,17.20
2022-12-23T15:26:33.396Z,13.25
2022-12-23T15:29:03.016Z,18.95
2022-12-23T15:31:34.203Z,18.23
2022-12-23T15:34:08.869Z,13.50
2022-12-23T15:36:44.008Z,12.45
2022-12-23T15:39:19.635Z,16.92
2022-12-23T15:41:49.557Z,15.57
2022-12-23T15:44:23.024Z,16.33
2022-12-23T15:49:20.224Z,16.85
2022-12-23T15:52:07.295Z,18.30
2022-12-23T15:54:38.334Z,22.90
2022-12-23T15:57:06.685Z,14.13
2022-12-23T15:59:38.388Z,18.17
2022-12-23T16:02:32.494Z,18.25
2022-12-23T16:05:01.527Z,11.55
2022-12-23T16:07:35.331Z,23.97
2022-12-23T16:10:12.689Z,15.65
2022-12-23T16:12:42.034Z,26.33
2022-12-23T16:15:23.715Z,23.80
2022-12-23T16:17:51.963Z,28.15
2022-12-23T16:20:25.348Z,19.08
2022-12-23T16:25:25.194Z,30.33
2022-12-23T16:28:00.506Z,28.10
2022-12-23T16:30:33.110Z,32.10
2022-12-23T16:33:03.398Z,17.38
2022-12-23T16:35:35.458Z,34.15
2022-12-23T16:38:13.651Z,37.03
2022-12-23T16:40:44.863Z,29.85
2022-12-23T16:43:13.467Z,23.90
2022-12-23T16:45:43.577Z,33.72
2022-12-23T16:48:14.919Z,24.75
2022-12-23T16:50:43.303Z,29.65
2022-12-23T16:53:13.923Z,37.90
2022-12-23T16:55:50.219Z,29.20
2022-12-23T16:58:20.885Z,35.83
2022-12-23T17:00:50.721Z,26.63
2022-12-23T17:03:20.474Z,27.80
2022-12-23T17:05:49.440Z,23.23
2022-12-23T17:08:18.387Z,27.88
2022-12-23T17:10:46.775Z,28.15
2022-12-23T17:13:17.275Z,28.17
2022-12-23T17:15:45.896Z,32.70
2022-12-23T17:18:17.579Z,29.30
2022-12-23T17:20:47.128Z,36.85
2022-12-23T17:23:27.955Z,34.45
2022-12-23T17:25:56.547Z,26.15
2022-12-23T17:28:24.804Z,31.15
2022-12-23T17:30:55.946Z,31.92
2022-12-23T17:33:29.670Z,30.92
2022-12-23T17:35:58.141Z,30.55
2022-12-23T17:38:27.509Z,24.80
2022-12-23T17:40:58.636Z,42.85
2022-12-23T17:43:27.119Z,32.30
2022-12-23T17:45:55.449Z,40.22
2022-12-23T17:48:31.179Z,31.48
2022-12-23T17:51:00.123Z,39.70
2022-12-23T17:53:28.380Z,38.13
2022-12-23T17:55:57.075Z,23.10
2022-12-23T17:58:25.612Z,20.40
2022-12-23T18:00:54.621Z,31.20
2022-12-23T18:03:25.272Z,40.42
2022-12-23T18:06:01.219Z,38.75
2022-12-23T18:08:31.000Z,29.08
2022-12-23T18:11:03.006Z,25.15
2022-12-23T18:13:31.305Z,42.78
2022-12-23T18:15:59.756Z,20.73
2022-12-23T18:18:37.958Z,30.98
2022-12-23T18:21:16.089Z,41.60
2022-12-23T18:23:44.524Z,45.63
2022-12-23T18:26:15.195Z,64.85
2022-12-23T18:28:43.565Z,31.73
2022-12-23T18:31:17.044Z,37.58
2022-12-23T18:36:22.890Z,57.58
2022-12-23T18:38:53.059Z,53.20
2022-12-23T18:41:21.707Z,44.83
2022-12-23T18:43:50.494Z,49.05
2022-12-23T18:46:20.212Z,52.47
2022-12-23T18:48:50.231Z,47.55
2022-12-23T18:51:20.297Z,23.60
2022-12-23T18:53:49.001Z,42.95
2022-12-23T18:56:20.266Z,35.60
2022-12-23T18:58:48.859Z,42.45
2022-12-23T19:01:19.474Z,47.05
2022-12-23T19:03:49.462Z,40.60
2022-12-23T19:06:17.933Z,24.13
2022-12-23T19:08:46.219Z,38.53
2022-12-23T19:11:17.747Z,38.10
2022-12-23T19:13:46.253Z,24.88
2022-12-23T19:16:15.627Z,44.17
2022-12-23T19:18:44.213Z,39.97
2022-12-23T19:21:13.899Z,42.20
2022-12-23T19:23:42.425Z,35.63
2022-12-23T19:26:11.383Z,26.67
2022-12-23T19:28:41.440Z,34.03
2022-12-23T19:31:10.341Z,34.53
2022-12-23T19:33:39.001Z,29.48
2022-12-23T19:36:11.849Z,20.33
2022-12-23T19:38:41.665Z,26.60
2022-12-23T19:41:10.570Z,38.45
2022-12-23T19:43:39.973Z,21.83
2022-12-23T19:46:09.658Z,34.20
2022-12-23T19:48:39.895Z,19.98
2022-12-23T19:51:09.699Z,23.58
2022-12-23T19:53:38.208Z,34.63
2022-12-23T19:56:09.680Z,22.90
2022-12-23T19:58:39.423Z,19.52
2022-12-23T20:01:13.298Z,36.65
2022-12-23T20:03:42.427Z,20.88
2022-12-23T20:06:17.315Z,37.65
2022-12-23T20:08:45.764Z,17.52
2022-12-23T20:11:17.543Z,41.45
2022-12-23T20:13:46.357Z,26.00
2022-12-23T20:16:14.900Z,36.13
2022-12-23T20:18:43.199Z,30.40
2022-12-23T20:21:11.423Z,18.55
2022-12-23T20:23:39.694Z,42.47
2022-12-23T20:26:08.286Z,47.08
2022-12-23T20:28:37.871Z,41.58
2022-12-23T20:31:09.082Z,21.27
2022-12-23T20:33:37.716Z,30.05
2022-12-23T20:36:07.930Z,34.47
2022-12-23T20:38:36.996Z,36.15
2022-12-23T20:41:05.475Z,33.08
2022-12-23T20:43:34.770Z,21.63
2022-12-23T20:46:06.168Z,38.85
2022-12-23T20:48:34.902Z,20.77
2022-12-23T20:51:06.198Z,24.38
2022-12-23T20:53:34.619Z,31.30
2022-12-23T20:56:02.941Z,37.00
2022-12-23T20:58:48.899Z,26.77
2022-12-23T21:01:18.951Z,31.30
2022-12-23T21:03:47.554Z,27.73
2022-12-23T21:06:15.989Z,33.80
2022-12-23T21:08:44.250Z,31.67
2022-12-23T21:11:12.492Z,33.50
2022-12-23T21:13:40.805Z,34.67
2022-12-23T21:16:10.897Z,24.92
2022-12-23T21:18:42.886Z,26.35
2022-12-23T21:21:11.623Z,30.73
2022-12-23T21:23:41.161Z,14.63
2022-12-23T21:26:12.223Z,22.30
2022-12-23T21:28:41.562Z,28.08
2022-12-23T21:31:10.571Z,33.20
2022-12-23T21:33:40.033Z,31.25
2022-12-23T21:36:13.708Z,33.42
2022-12-23T21:38:46.937Z,28.23
2022-12-23T21:41:16.642Z,27.10
2022-12-23T21:43:44.979Z,23.85
2022-12-23T21:46:15.527Z,25.15
2022-12-23T21:48:44.442Z,20.60
2022-12-23T21:51:15.556Z,26.58
2022-12-23T21:53:45.062Z,20.25
2022-12-23T21:56:15.115Z,21.60
2022-12-23T21:58:43.732Z,23.60
2022-12-23T22:01:13.602Z,19.02
2022-12-23T22:03:42.160Z,30.88
2022-12-23T22:06:12.890Z,25.42
2022-12-23T22:08:42.651Z,22.90
2022-12-23T22:11:12.751Z,19.42
2022-12-23T22:13:41.327Z,22.77
2022-12-23T22:16:11.950Z,21.10
2022-12-23T22:18:41.255Z,20.20
2022-12-23T22:21:10.319Z,25.10
2022-12-23T22:23:39.028Z,12.93
2022-12-23T22:26:09.669Z,22.27
2022-12-23T22:28:40.190Z,27.73
2022-12-23T22:31:10.069Z,25.70
2022-12-23T22:33:38.400Z,22.60
2022-12-23T22:36:07.604Z,17.77
2022-12-23T22:38:36.502Z,25.52
2022-12-23T22:41:04.961Z,23.40
2022-12-23T22:43:34.802Z,24.88
2022-12-23T22:46:03.544Z,16.33
2022-12-23T22:48:32.360Z,21.98
2022-12-23T22:51:04.775Z,30.08
2022-12-23T22:53:33.519Z,21.00
2022-12-23T22:56:02.595Z,23.23
2022-12-23T22:58:32.479Z,25.85
2022-12-23T23:01:02.423Z,25.10
2022-12-23T23:03:30.992Z,16.42
2022-12-23T23:06:00.842Z,20.52
2022-12-23T23:08:29.491Z,24.45
2022-12-23T23:10:58.345Z,20.45
2022-12-23T23:13:27.263Z,25.02
2022-12-23T23:15:56.130Z,24.85
2022-12-23T23:18:26.245Z,29.13
2022-12-23T23:20:54.880Z,20.42
2022-12-23T23:23:23.711Z,19.42
2022-12-23T23:25:52.065Z,29.63
2022-12-23T23:28:20.602Z,22.85
2022-12-23T23:30:55.405Z,20.73
2022-12-23T23:33:33.474Z,24.75
2022-12-23T23:36:01.786Z,33.83
2022-12-23T23:38:29.963Z,25.98
2022-12-23T23:40:59.282Z,30.85
2022-12-23T23:43:27.595Z,17.60
2022-12-23T23:45:55.851Z,21.17
2022-12-23T23:48:24.242Z,21.40
2022-12-23T23:50:53.896Z,26.45
2022-12-23T23:53:22.136Z,15.40
2022-12-23T23:55:50.619Z,27.83
2022-12-23T23:58:18.876Z,24.98
